createdAt,value
2022-12-17T00:02:45.210Z,18.20
2022-12-17T00:05:36.336Z,18.20
2022-12-17T00:08:22.177Z,18.20
2022-12-17T00:11:07.440Z,18.20
2022-12-17T00:14:01.439Z,18.20
2022-12-17T00:16:48.358Z,18.20
2022-12-17T00:19:34.121Z,18.20
2022-12-17T00:22:19.646Z,18.20
2022-12-17T00:25:05.216Z,18.20
2022-12-17T00:27:50.576Z,18.20
2022-12-17T00:30:36.164Z,18.20
2022-12-17T00:33:23.242Z,18.20
2022-12-17T00:36:10.766Z,18.20
2022-12-17T00:39:11.111Z,18.20
2022-12-17T00:41:57.092Z,18.20
2022-12-17T00:44:42.570Z,18.20
2022-12-17T00:47:42.549Z,18.20
2022-12-17T00:50:30.835Z,18.20
2022-12-17T00:53:16.666Z,18.20
2022-12-17T00:56:02.308Z,18.20
2022-12-17T00:58:48.154Z,18.20
2022-12-17T01:01:33.789Z,18.20
2022-12-17T01:04:19.828Z,18.20
2022-12-17T01:07:06.895Z,18.20
2022-12-17T01:09:52.267Z,18.20
2022-12-17T01:12:37.838Z,18.20
2022-12-17T01:15:24.522Z,18.20
2022-12-17T01:18:10.570Z,18.20
2022-12-17T01:20:56.437Z,18.20
2022-12-17T01:23:43.479Z,18.20
2022-12-17T01:26:29.515Z,18.20
2022-12-17T01:29:16.250Z,18.10
2022-12-17T01:32:02.028Z,18.20
2022-12-17T01:34:47.447Z,18.20
2022-12-17T01:37:33.424Z,18.20
2022-12-17T01:40:20.638Z,18.20
2022-12-17T01:43:06.409Z,18.20
2022-12-17T01:45:57.391Z,18.20
2022-12-17T01:48:47.707Z,18.20
2022-12-17T01:51:34.434Z,18.20
2022-12-17T01:54:21.107Z,18.10
2022-12-17T01:57:08.677Z,18.20
2022-12-17T02:00:00.233Z,18.20
2022-12-17T02:02:47.487Z,18.10
2022-12-17T02:05:33.876Z,18.10
2022-12-17T02:08:28.137Z,18.10
2022-12-17T02:11:22.973Z,18.20
2022-12-17T02:14:19.715Z,18.10
2022-12-17T02:17:12.350Z,18.10
2022-12-17T02:20:07.938Z,18.10
2022-12-17T02:23:07.293Z,18.10
2022-12-17T02:26:15.157Z,18.10
2022-12-17T02:29:18.529Z,18.10
2022-12-17T02:32:06.010Z,18.10
2022-12-17T02:35:01.182Z,18.10
2022-12-17T02:37:47.339Z,18.10
2022-12-17T02:40:33.047Z,18.10
2022-12-17T02:43:19.837Z,18.10
2022-12-17T02:46:08.258Z,18.10
2022-12-17T02:48:53.340Z,18.10
2022-12-17T02:51:41.769Z,18.10
2022-12-17T02:54:27.123Z,18.10
2022-12-17T02:57:13.110Z,18.10
2022-12-17T02:59:58.455Z,18.10
2022-12-17T03:02:45.716Z,18.10
2022-12-17T03:05:46.522Z,18.10
2022-12-17T03:08:32.383Z,18.10
2022-12-17T03:11:18.210Z,18.10
2022-12-17T03:14:03.858Z,18.10
2022-12-17T03:16:49.448Z,18.10
2022-12-17T03:19:39.671Z,18.10
2022-12-17T03:22:24.940Z,18.10
2022-12-17T03:25:12.258Z,18.10
2022-12-17T03:27:57.583Z,18.10
2022-12-17T03:30:48.498Z,18.10
2022-12-17T03:33:34.804Z,18.10
2022-12-17T03:36:22.608Z,18.10
2022-12-17T03:39:08.270Z,18.10
2022-12-17T03:41:53.726Z,18.10
2022-12-17T03:44:39.236Z,18.10
2022-12-17T03:47:24.727Z,18.10
2022-12-17T03:50:10.258Z,18.10
2022-12-17T03:52:57.376Z,18.10
2022-12-17T03:55:43.084Z,18.10
2022-12-17T03:58:28.616Z,18.10
2022-12-17T04:01:14.343Z,18.10
2022-12-17T04:04:00.290Z,18.10
2022-12-17T04:06:45.944Z,18.10
2022-12-17T04:09:33.001Z,18.10
2022-12-17T04:12:33.212Z,18.10
2022-12-17T04:15:19.061Z,18.10
2022-12-17T04:18:04.771Z,18.10
2022-12-17T04:20:50.300Z,18.10
2022-12-17T04:23:44.287Z,18.10
2022-12-17T04:26:31.088Z,18.10
2022-12-17T04:29:16.765Z,18.10
2022-12-17T04:32:02.506Z,18.10
2022-12-17T04:34:47.997Z,18.10
2022-12-17T04:37:33.363Z,18.10
2022-12-17T04:40:18.984Z,18.10
2022-12-17T04:43:05.914Z,18.10
2022-12-17T04:45:51.458Z,18.10
2022-12-17T04:48:36.806Z,18.10
2022-12-17T04:51:22.972Z,18.10
2022-12-17T04:54:08.738Z,18.10
2022-12-17T04:56:55.223Z,18.10
2022-12-17T04:59:42.434Z,18.10
2022-12-17T05:02:27.989Z,18.10
2022-12-17T05:05:13.817Z,18.10
2022-12-17T05:07:59.314Z,18.10
2022-12-17T05:10:45.149Z,18.10
2022-12-17T05:13:30.533Z,18.10
2022-12-17T05:16:13.874Z,18.10
2022-12-17T05:18:59.494Z,18.10
2022-12-17T05:21:44.910Z,18.10
2022-12-17T05:24:30.535Z,18.10
2022-12-17T05:27:16.041Z,18.10
2022-12-17T05:30:01.607Z,18.10
2022-12-17T05:32:53.750Z,18.10
2022-12-17T05:35:39.312Z,18.00
2022-12-17T05:38:26.418Z,18.10
2022-12-17T05:41:15.205Z,18.10
2022-12-17T05:44:00.838Z,18.00
2022-12-17T05:46:46.809Z,18.10
2022-12-17T05:49:39.346Z,18.10
2022-12-17T05:52:24.983Z,18.10
2022-12-17T05:55:10.591Z,18.00
2022-12-17T05:57:56.764Z,18.00
2022-12-17T06:00:43.034Z,18.00
2022-12-17T06:03:43.422Z,18.00
2022-12-17T06:06:30.231Z,18.00
2022-12-17T06:09:16.141Z,18.00
2022-12-17T06:12:02.954Z,18.00
2022-12-17T06:14:48.858Z,18.00
2022-12-17T06:17:34.410Z,18.00
2022-12-17T06:20:20.017Z,18.00
2022-12-17T06:23:16.674Z,18.00
2022-12-17T06:26:02.277Z,18.00
2022-12-17T06:28:47.849Z,18.00
2022-12-17T06:31:33.601Z,18.00
2022-12-17T06:34:19.046Z,18.00
2022-12-17T06:37:04.951Z,18.00
2022-12-17T06:40:03.373Z,18.00
2022-12-17T06:42:49.382Z,18.00
2022-12-17T06:45:31.506Z,18.00
2022-12-17T06:48:20.823Z,18.00
2022-12-17T06:51:06.236Z,18.00
2022-12-17T06:53:51.797Z,18.00
2022-12-17T06:56:38.422Z,18.00
2022-12-17T06:59:24.045Z,18.00
2022-12-17T07:02:09.890Z,18.00
2022-12-17T07:04:55.762Z,18.00
2022-12-17T07:07:41.470Z,18.00
2022-12-17T07:10:27.722Z,18.00
2022-12-17T07:13:14.368Z,18.10
2022-12-17T07:15:56.611Z,18.10
2022-12-17T07:18:38.634Z,18.20
2022-12-17T07:21:24.963Z,18.20
2022-12-17T07:24:10.433Z,18.20
2022-12-17T07:26:56.140Z,18.30
2022-12-17T07:29:43.140Z,18.30
2022-12-17T07:32:29.020Z,18.30
2022-12-17T07:35:15.668Z,18.40
2022-12-17T07:38:01.241Z,18.30
2022-12-17T07:40:46.904Z,18.30
2022-12-17T07:43:33.572Z,18.30
2022-12-17T07:46:20.635Z,18.40
2022-12-17T07:49:06.714Z,18.40
2022-12-17T07:51:52.169Z,18.40
2022-12-17T07:54:37.843Z,18.40
2022-12-17T07:57:19.914Z,18.40
2022-12-17T08:00:05.168Z,18.40
2022-12-17T08:02:52.590Z,18.40
2022-12-17T08:05:37.886Z,18.40
2022-12-17T08:08:26.843Z,18.40
2022-12-17T08:11:12.619Z,18.40
2022-12-17T08:13:58.297Z,18.40
2022-12-17T08:16:43.832Z,18.40
2022-12-17T08:19:30.906Z,18.40
2022-12-17T08:22:16.177Z,18.40
2022-12-17T08:25:01.878Z,18.40
2022-12-17T08:27:47.543Z,18.40
2022-12-17T08:30:33.211Z,18.40
2022-12-17T08:33:21.792Z,18.30
2022-12-17T08:36:12.356Z,18.30
2022-12-17T08:38:58.238Z,18.30
2022-12-17T08:41:58.361Z,18.30
2022-12-17T08:44:46.905Z,18.40
2022-12-17T08:47:32.228Z,18.40
2022-12-17T08:50:17.775Z,18.30
2022-12-17T08:53:04.497Z,18.30
2022-12-17T08:55:50.154Z,18.30
2022-12-17T08:58:35.857Z,18.40
2022-12-17T09:01:21.674Z,18.30
2022-12-17T09:04:07.097Z,18.40
2022-12-17T09:06:52.751Z,18.40
2022-12-17T09:09:39.667Z,18.40
2022-12-17T09:12:25.419Z,18.30
2022-12-17T09:15:10.956Z,18.30
2022-12-17T09:17:56.443Z,18.30
2022-12-17T09:20:42.621Z,18.30
2022-12-17T09:23:28.325Z,18.30
2022-12-17T09:26:16.316Z,18.20
2022-12-17T09:29:02.047Z,18.20
2022-12-17T09:31:49.728Z,18.20
2022-12-17T09:34:35.792Z,18.20
2022-12-17T09:37:21.787Z,18.20
2022-12-17T09:40:07.342Z,18.20
2022-12-17T09:43:14.075Z,18.20
2022-12-17T09:46:09.605Z,18.20
2022-12-17T09:49:06.178Z,18.10
2022-12-17T09:51:52.678Z,18.10
2022-12-17T09:54:43.846Z,18.10
2022-12-17T09:57:34.765Z,18.10
2022-12-17T10:00:31.774Z,18.10
2022-12-17T10:03:17.182Z,18.10
2022-12-17T10:06:05.329Z,18.20
2022-12-17T10:08:51.230Z,18.20
2022-12-17T10:11:40.729Z,18.20
2022-12-17T10:14:34.313Z,18.30
2022-12-17T10:17:21.518Z,18.30
2022-12-17T10:20:09.954Z,18.30
2022-12-17T10:23:04.752Z,18.30
2022-12-17T10:25:50.852Z,18.40
2022-12-17T10:28:38.211Z,18.40
2022-12-17T10:31:28.180Z,18.40
2022-12-17T10:34:24.789Z,18.50
2022-12-17T10:37:26.300Z,18.50
2022-12-17T10:40:15.124Z,18.50
2022-12-17T10:43:01.143Z,18.50
2022-12-17T10:45:48.854Z,18.60
2022-12-17T10:48:37.593Z,18.60
2022-12-17T10:51:47.667Z,18.60
2022-12-17T10:54:45.428Z,18.70
2022-12-17T10:57:46.942Z,18.70
2022-12-17T11:00:49.304Z,18.70
2022-12-17T11:03:52.140Z,18.70
2022-12-17T11:06:44.954Z,18.80
2022-12-17T11:09:40.122Z,18.80
2022-12-17T11:12:30.870Z,18.80
2022-12-17T11:15:22.765Z,18.80
2022-12-17T11:18:11.520Z,18.90
2022-12-17T11:21:06.129Z,18.90
2022-12-17T11:23:56.567Z,18.90
2022-12-17T11:26:45.432Z,18.90
2022-12-17T11:29:32.401Z,18.90
2022-12-17T11:32:41.687Z,18.90
2022-12-17T11:35:35.863Z,18.90
2022-12-17T11:38:32.337Z,19.00
2022-12-17T11:41:26.807Z,19.00
2022-12-17T11:44:21.796Z,19.00
2022-12-17T11:47:09.361Z,19.00
2022-12-17T11:50:04.156Z,19.00
2022-12-17T11:52:50.783Z,19.00
2022-12-17T11:55:44.632Z,19.10
2022-12-17T11:58:39.209Z,19.10
2022-12-17T12:01:32.761Z,19.10
2022-12-17T12:04:32.825Z,19.10
2022-12-17T12:07:25.638Z,19.10
2022-12-17T12:10:15.836Z,19.10
2022-12-17T12:13:12.916Z,19.10
2022-12-17T12:16:12.229Z,19.20
2022-12-17T12:19:07.531Z,19.20
2022-12-17T12:22:06.343Z,19.20
2022-12-17T12:25:05.364Z,19.20
2022-12-17T12:27:59.706Z,19.20
2022-12-17T12:30:53.761Z,19.30
2022-12-17T12:33:50.781Z,19.30
2022-12-17T12:36:38.682Z,19.30
2022-12-17T12:39:41.654Z,19.30
2022-12-17T12:42:35.621Z,19.30
2022-12-17T12:45:26.165Z,19.30
2022-12-17T12:48:17.299Z,19.30
2022-12-17T12:51:14.123Z,19.30
2022-12-17T12:53:59.499Z,19.30
2022-12-17T12:56:47.645Z,19.40
2022-12-17T12:59:45.113Z,19.40
2022-12-17T13:02:46.481Z,19.40
2022-12-17T13:05:34.683Z,19.40
2022-12-17T13:08:17.666Z,19.40
2022-12-17T13:10:46.638Z,18.90
2022-12-17T13:13:25.884Z,15.20
2022-12-17T13:15:57.376Z,13.30
2022-12-17T13:18:30.489Z,13.20
2022-12-17T13:21:01.512Z,13.50
2022-12-17T13:23:34.574Z,14.10
2022-12-17T13:26:21.627Z,14.60
2022-12-17T13:29:02.216Z,15.10
2022-12-17T13:31:34.902Z,15.50
2022-12-17T13:34:13.066Z,16.00
2022-12-17T13:36:50.843Z,16.40
2022-12-17T13:39:32.262Z,16.70
2022-12-17T13:42:01.361Z,16.90
2022-12-17T13:44:36.130Z,17.20
2022-12-17T13:47:04.354Z,17.40
2022-12-17T13:49:32.736Z,17.50
2022-12-17T13:52:11.415Z,17.60
2022-12-17T13:54:41.433Z,17.70
2022-12-17T13:57:10.531Z,17.80
2022-12-17T13:59:39.544Z,17.90
2022-12-17T14:02:07.868Z,18.00
2022-12-17T14:04:36.089Z,18.00
2022-12-17T14:07:06.372Z,18.10
2022-12-17T14:09:38.005Z,18.10
2022-12-17T14:12:24.670Z,18.20
2022-12-17T14:14:56.971Z,18.20
2022-12-17T14:17:26.736Z,18.20
2022-12-17T14:20:00.187Z,18.30
2022-12-17T14:22:34.704Z,18.30
2022-12-17T14:25:03.593Z,18.40
2022-12-17T14:27:35.902Z,18.30
2022-12-17T14:30:21.604Z,18.40
2022-12-17T14:32:49.697Z,18.40
2022-12-17T14:35:26.564Z,18.40
2022-12-17T14:37:54.834Z,18.40
2022-12-17T14:40:26.924Z,18.40
2022-12-17T14:43:01.006Z,18.40
2022-12-17T14:45:30.078Z,18.40
2022-12-17T14:47:59.913Z,18.50
2022-12-17T14:50:32.361Z,18.40
2022-12-17T14:53:01.993Z,18.50
2022-12-17T14:55:33.789Z,18.50
2022-12-17T14:58:21.938Z,18.50
2022-12-17T15:00:53.734Z,18.50
2022-12-17T15:03:24.864Z,18.50
2022-12-17T15:05:56.364Z,18.50
2022-12-17T15:08:24.776Z,18.50
2022-12-17T15:10:52.957Z,18.50
2022-12-17T15:13:22.872Z,18.50
2022-12-17T15:15:51.035Z,18.50
2022-12-17T15:18:19.083Z,18.60
2022-12-17T15:20:47.470Z,18.60
2022-12-17T15:23:18.428Z,18.60
2022-12-17T15:25:47.499Z,18.60
2022-12-17T15:28:16.447Z,18.60
2022-12-17T15:30:46.630Z,18.60
2022-12-17T15:33:15.204Z,18.70
2022-12-17T15:35:44.040Z,18.70
2022-12-17T15:38:13.414Z,18.70
2022-12-17T15:40:42.088Z,18.70
2022-12-17T15:43:13.429Z,18.70
2022-12-17T15:45:42.761Z,18.70
2022-12-17T15:48:13.465Z,18.80
2022-12-17T15:50:41.654Z,18.70
2022-12-17T15:53:10.306Z,18.80
2022-12-17T15:55:38.896Z,18.80
2022-12-17T15:58:07.914Z,18.80
2022-12-17T16:00:36.539Z,18.80
2022-12-17T16:03:05.156Z,18.80
2022-12-17T16:05:34.712Z,18.80
2022-12-17T16:08:03.147Z,18.80
2022-12-17T16:10:31.694Z,18.80
2022-12-17T16:12:59.759Z,18.80
2022-12-17T16:15:28.834Z,18.90
2022-12-17T16:17:56.974Z,18.80
2022-12-17T16:20:25.888Z,18.80
2022-12-17T16:22:55.369Z,18.80
2022-12-17T16:25:23.539Z,18.80
2022-12-17T16:27:51.552Z,18.80
2022-12-17T16:30:19.820Z,18.80
2022-12-17T16:32:47.929Z,18.80
2022-12-17T16:35:16.084Z,18.70
2022-12-17T16:37:44.136Z,18.70
2022-12-17T16:40:14.138Z,18.70
2022-12-17T16:42:42.181Z,18.70
2022-12-17T16:45:11.093Z,18.70
2022-12-17T16:47:39.117Z,18.70
2022-12-17T16:50:07.650Z,18.70
2022-12-17T16:52:36.221Z,18.70
2022-12-17T16:55:04.570Z,18.70
2022-12-17T16:57:33.963Z,18.70
2022-12-17T17:00:02.191Z,18.70
2022-12-17T17:02:30.511Z,18.70
2022-12-17T17:04:58.861Z,18.70
2022-12-17T17:07:26.979Z,18.70
2022-12-17T17:09:55.258Z,18.70
2022-12-17T17:12:23.460Z,18.70
2022-12-17T17:14:52.985Z,18.70
2022-12-17T17:17:55.980Z,18.80
2022-12-17T17:20:10.126Z,18.80
2022-12-17T17:22:38.285Z,18.80
2022-12-17T17:25:07.000Z,18.80
2022-12-17T17:27:35.215Z,18.80
2022-12-17T17:30:05.669Z,18.80
2022-12-17T17:32:33.758Z,18.80
2022-12-17T17:35:01.867Z,18.80
2022-12-17T17:37:29.970Z,18.90
2022-12-17T17:39:57.997Z,18.90
2022-12-17T17:42:28.685Z,18.90
2022-12-17T17:44:56.727Z,18.90
2022-12-17T17:47:26.065Z,18.90
2022-12-17T17:49:54.186Z,18.90
2022-12-17T17:52:22.304Z,18.90
2022-12-17T17:54:50.347Z,18.90
2022-12-17T17:57:18.383Z,18.90
2022-12-17T17:59:46.533Z,18.90
2022-12-17T18:02:14.708Z,18.90
2022-12-17T18:04:44.226Z,18.90
2022-12-17T18:07:28.622Z,18.90
2022-12-17T18:09:56.958Z,18.90
2022-12-17T18:12:51.026Z,18.90
2022-12-17T18:15:19.343Z,18.90
2022-12-17T18:17:50.236Z,18.90
2022-12-17T18:20:19.830Z,18.90
2022-12-17T18:22:47.927Z,18.90
2022-12-17T18:25:16.829Z,18.90
2022-12-17T18:27:44.990Z,18.90
2022-12-17T18:30:13.589Z,18.90
2022-12-17T18:32:42.652Z,18.90
2022-12-17T18:35:11.223Z,18.90
2022-12-17T18:37:40.648Z,18.90
2022-12-17T18:40:09.832Z,18.90
2022-12-17T18:42:55.473Z,18.90
2022-12-17T18:45:23.700Z,18.90
2022-12-17T18:47:52.199Z,18.90
2022-12-17T18:50:20.411Z,18.90
2022-12-17T18:52:50.024Z,18.90
2022-12-17T18:55:18.323Z,18.90
2022-12-17T18:57:47.205Z,18.90
2022-12-17T19:00:16.211Z,18.90
2022-12-17T19:02:45.104Z,18.90
2022-12-17T19:05:13.328Z,18.90
2022-12-17T19:07:41.507Z,18.90
2022-12-17T19:10:12.649Z,18.90
2022-12-17T19:12:40.745Z,18.90
2022-12-17T19:15:09.912Z,18.90
2022-12-17T19:17:38.035Z,18.90
2022-12-17T19:20:06.846Z,18.90
2022-12-17T19:22:35.045Z,18.90
2022-12-17T19:25:03.107Z,18.90
2022-12-17T19:27:32.679Z,18.90
2022-12-17T19:30:00.735Z,18.90
2022-12-17T19:32:28.876Z,18.80
2022-12-17T19:34:56.914Z,18.80
2022-12-17T19:37:24.953Z,18.80
2022-12-17T19:39:53.090Z,18.80
2022-12-17T19:42:33.504Z,18.80
2022-12-17T19:45:04.866Z,18.80
2022-12-17T19:47:32.955Z,18.80
2022-12-17T19:50:00.948Z,18.80
2022-12-17T19:52:29.094Z,18.80
2022-12-17T19:54:57.196Z,18.80
2022-12-17T19:57:25.226Z,18.80
2022-12-17T19:59:53.422Z,18.80
2022-12-17T20:02:24.882Z,18.80
2022-12-17T20:04:55.299Z,18.80
2022-12-17T20:07:23.466Z,18.80
2022-12-17T20:09:51.497Z,18.80
2022-12-17T20:12:19.537Z,18.80
2022-12-17T20:14:47.583Z,18.80
2022-12-17T20:17:15.980Z,18.90
2022-12-17T20:19:45.390Z,18.90
2022-12-17T20:22:13.406Z,18.90
2022-12-17T20:24:41.436Z,18.90
2022-12-17T20:27:10.898Z,18.90
2022-12-17T20:29:39.157Z,18.90
2022-12-17T20:32:07.207Z,18.90
2022-12-17T20:34:35.686Z,18.90
2022-12-17T20:37:05.072Z,18.90
2022-12-17T20:39:33.131Z,18.90
2022-12-17T20:42:01.228Z,18.90
2022-12-17T20:44:29.554Z,18.90
2022-12-17T20:46:57.591Z,18.90
2022-12-17T20:49:25.968Z,18.90
2022-12-17T20:51:54.131Z,18.90
2022-12-17T20:54:23.734Z,18.90
2022-12-17T20:56:51.765Z,18.90
2022-12-17T20:59:20.792Z,18.90
2022-12-17T21:01:55.599Z,18.90
2022-12-17T21:04:24.894Z,18.90
2022-12-17T21:06:53.203Z,18.90
2022-12-17T21:09:25.249Z,18.90
2022-12-17T21:11:53.620Z,18.80
2022-12-17T21:14:21.612Z,18.80
2022-12-17T21:16:50.148Z,18.90
2022-12-17T21:19:20.056Z,18.90
2022-12-17T21:21:48.751Z,18.80
2022-12-17T21:24:16.963Z,18.80
2022-12-17T21:26:48.385Z,18.80
2022-12-17T21:29:17.260Z,18.80
2022-12-17T21:31:47.021Z,18.80
2022-12-17T21:34:18.213Z,18.80
2022-12-17T21:36:46.596Z,18.80
2022-12-17T21:39:15.893Z,18.80
2022-12-17T21:42:03.589Z,18.90
2022-12-17T21:44:32.151Z,18.90
2022-12-17T21:47:00.170Z,18.90
2022-12-17T21:49:28.371Z,18.90
2022-12-17T21:51:59.159Z,18.90
2022-12-17T21:54:27.374Z,18.90
2022-12-17T21:56:56.933Z,18.80
2022-12-17T21:59:25.088Z,18.80
2022-12-17T22:01:57.047Z,18.80
2022-12-17T22:04:25.884Z,18.80
2022-12-17T22:06:57.713Z,18.80
2022-12-17T22:10:25.468Z,18.80
2022-12-17T22:12:49.492Z,18.80
2022-12-17T22:15:17.718Z,18.70
2022-12-17T22:17:46.228Z,18.80
2022-12-17T22:20:16.167Z,18.70
2022-12-17T22:22:44.645Z,18.70
2022-12-17T22:25:14.145Z,18.70
2022-12-17T22:27:44.279Z,18.70
2022-12-17T22:30:33.161Z,18.80
2022-12-17T22:33:09.852Z,18.70
2022-12-17T22:36:51.230Z,18.70
2022-12-17T22:42:39.975Z,18.70
2022-12-17T22:44:38.218Z,18.70
2022-12-17T22:44:51.203Z,18.70
2022-12-17T22:47:21.146Z,18.70
2022-12-17T22:49:49.704Z,18.60
2022-12-17T22:52:18.359Z,18.60
2022-12-17T22:54:47.950Z,18.70
2022-12-17T22:57:36.287Z,18.60
2022-12-17T23:00:10.657Z,18.60
2022-12-17T23:02:38.814Z,18.60
2022-12-17T23:05:07.410Z,18.60
2022-12-17T23:07:35.962Z,18.60
2022-12-17T23:10:04.396Z,18.60
2022-12-17T23:12:49.753Z,18.60
2022-12-17T23:15:22.328Z,18.60
2022-12-17T23:17:50.808Z,18.50
2022-12-17T23:20:18.897Z,18.50
2022-12-17T23:22:47.261Z,18.60
2022-12-17T23:25:15.387Z,18.50
2022-12-17T23:27:43.814Z,18.50
2022-12-17T23:30:13.807Z,18.50
2022-12-17T23:32:43.348Z,18.50
2022-12-17T23:35:12.187Z,18.50
2022-12-17T23:37:40.618Z,18.50
2022-12-17T23:40:13.167Z,18.40
2022-12-17T23:42:41.381Z,18.40
2022-12-17T23:45:11.830Z,18.40
2022-12-17T23:47:42.928Z,18.40
2022-12-17T23:50:12.294Z,18.40
2022-12-17T23:52:40.854Z,18.40
2022-12-17T23:55:11.072Z,18.30
2022-12-17T23:57:39.229Z,18.40
